createdAt,value
2019-02-10T00:02:37.157Z,2.03
2019-02-10T00:05:17.995Z,2.47
2019-02-10T00:07:58.695Z,2.20
2019-02-10T00:10:39.763Z,2.10
2019-02-10T00:13:20.366Z,2.03
2019-02-10T00:16:01.243Z,2.20
2019-02-10T00:18:42.224Z,2.83
2019-02-10T00:21:23.071Z,2.93
2019-02-10T00:24:03.893Z,2.87
2019-02-10T00:26:44.578Z,3.63
2019-02-10T00:29:25.447Z,2.10
2019-02-10T00:32:05.910Z,2.03
2019-02-10T00:34:47.163Z,2.80
2019-02-10T00:37:27.641Z,3.37
2019-02-10T00:40:08.293Z,2.63
2019-02-10T00:42:48.805Z,2.00
2019-02-10T00:45:29.363Z,2.20
2019-02-10T00:48:10.063Z,2.90
2019-02-10T00:50:50.891Z,3.13
2019-02-10T00:53:31.579Z,3.10
2019-02-10T00:56:12.475Z,3.37
2019-02-10T00:58:53.278Z,2.93
2019-02-10T01:01:34.057Z,2.70
2019-02-10T01:04:15.019Z,2.63
2019-02-10T01:06:55.734Z,2.70
2019-02-10T01:09:36.270Z,3.00
2019-02-10T01:12:17.726Z,2.30
2019-02-10T01:14:58.682Z,3.20
2019-02-10T01:17:39.109Z,2.77
2019-02-10T01:20:20.083Z,2.50
2019-02-10T01:23:00.998Z,2.87
2019-02-10T01:25:41.623Z,2.13
2019-02-10T01:28:22.093Z,4.10
2019-02-10T01:31:02.754Z,3.13
2019-02-10T01:33:43.647Z,2.40
2019-02-10T01:36:23.982Z,2.97
2019-02-10T01:39:05.591Z,2.87
2019-02-10T01:41:45.956Z,3.23
2019-02-10T01:44:26.838Z,2.70
2019-02-10T01:47:07.420Z,2.43
2019-02-10T01:49:47.779Z,2.40
2019-02-10T01:52:28.500Z,2.83
2019-02-10T01:55:09.624Z,2.93
2019-02-10T01:57:50.142Z,3.47
2019-02-10T02:00:31.383Z,3.03
2019-02-10T02:03:12.002Z,2.40
2019-02-10T02:05:52.951Z,2.80
2019-02-10T02:08:33.854Z,2.40
2019-02-10T02:11:14.628Z,2.80
2019-02-10T02:13:55.357Z,2.53
2019-02-10T02:16:36.170Z,2.70
2019-02-10T02:19:16.942Z,3.80
2019-02-10T02:21:57.435Z,3.40
2019-02-10T02:24:38.267Z,3.40
2019-02-10T02:27:18.904Z,4.00
2019-02-10T02:29:59.903Z,3.33
2019-02-10T02:32:40.461Z,2.90
2019-02-10T02:35:20.870Z,3.50
2019-02-10T02:38:01.349Z,4.40
2019-02-10T02:40:41.869Z,3.97
2019-02-10T02:43:22.614Z,3.93
2019-02-10T02:46:03.394Z,2.80
2019-02-10T02:48:44.174Z,3.83
2019-02-10T02:51:25.038Z,4.27
2019-02-10T02:54:05.844Z,3.93
2019-02-10T02:56:46.705Z,4.00
2019-02-10T02:59:27.482Z,2.93
2019-02-10T03:02:08.092Z,3.33
2019-02-10T03:04:48.837Z,3.43
2019-02-10T03:07:29.693Z,3.10
2019-02-10T03:10:10.376Z,4.00
2019-02-10T03:12:51.553Z,3.67
2019-02-10T03:15:32.474Z,2.87
2019-02-10T03:18:13.638Z,3.57
2019-02-10T03:20:54.258Z,3.10
2019-02-10T03:23:35.279Z,4.43
2019-02-10T03:26:16.046Z,3.93
2019-02-10T03:28:56.408Z,4.07
2019-02-10T03:31:36.858Z,3.70
2019-02-10T03:34:17.635Z,4.20
2019-02-10T03:36:58.798Z,3.50
2019-02-10T03:39:39.435Z,3.77
2019-02-10T03:42:20.259Z,2.50
2019-02-10T03:45:01.355Z,3.40
2019-02-10T03:47:41.827Z,3.40
2019-02-10T03:53:11.562Z,3.20
2019-02-10T03:55:52.622Z,3.43
2019-02-10T03:58:33.009Z,4.00
2019-02-10T04:01:13.574Z,3.10
2019-02-10T04:03:54.503Z,2.83
2019-02-10T04:06:35.104Z,2.93
2019-02-10T04:09:15.530Z,3.50
2019-02-10T04:11:56.258Z,3.03
2019-02-10T04:14:36.877Z,3.20
2019-02-10T04:17:17.547Z,4.30
2019-02-10T04:19:58.134Z,3.53
2019-02-10T04:22:39.327Z,2.70
2019-02-10T04:25:20.048Z,4.27
2019-02-10T04:28:00.649Z,5.20
2019-02-10T04:30:41.659Z,3.63
2019-02-10T04:33:22.570Z,2.80
2019-02-10T04:36:03.916Z,3.30
2019-02-10T04:38:44.637Z,4.27
2019-02-10T04:41:25.306Z,3.77
2019-02-10T04:44:05.895Z,3.33
2019-02-10T04:46:46.513Z,3.50
2019-02-10T04:49:27.136Z,3.37
2019-02-10T04:52:08.797Z,3.20
2019-02-10T04:54:50.543Z,2.93
2019-02-10T04:57:31.755Z,3.77
2019-02-10T05:00:12.671Z,3.40
2019-02-10T05:02:53.224Z,3.13
2019-02-10T05:05:33.545Z,3.83
2019-02-10T05:08:14.330Z,3.80
2019-02-10T05:10:54.902Z,3.00
2019-02-10T05:13:35.954Z,2.90
2019-02-10T05:16:17.016Z,3.87
2019-02-10T05:18:57.690Z,3.17
2019-02-10T05:21:38.175Z,3.00
2019-02-10T05:24:19.082Z,2.97
2019-02-10T05:26:59.907Z,3.20
2019-02-10T05:29:40.695Z,3.20
2019-02-10T05:32:21.080Z,3.57
2019-02-10T05:35:01.857Z,4.07
2019-02-10T05:37:42.470Z,3.37
2019-02-10T05:40:23.300Z,4.07
2019-02-10T05:43:04.191Z,3.50
2019-02-10T05:45:33.283Z,3.40
2019-02-10T05:48:21.248Z,2.67
2019-02-10T05:51:09.291Z,3.00
2019-02-10T05:53:57.297Z,3.37
2019-02-10T05:56:45.311Z,4.13
2019-02-10T05:59:33.334Z,3.10
2019-02-10T06:05:33.990Z,3.00
2019-02-10T06:08:21.973Z,1.77
2019-02-10T06:11:03.071Z,2.20
2019-02-10T06:13:43.762Z,2.77
2019-02-10T06:16:24.223Z,2.30
2019-02-10T06:19:04.956Z,2.00
2019-02-10T06:21:46.437Z,1.53
2019-02-10T06:24:27.958Z,2.30
2019-02-10T06:27:09.076Z,2.00
2019-02-10T06:29:49.875Z,3.10
2019-02-10T06:32:31.108Z,1.70
2019-02-10T06:35:11.589Z,1.40
2019-02-10T06:37:52.291Z,1.83
2019-02-10T06:40:32.915Z,1.70
2019-02-10T06:43:13.478Z,2.17
2019-02-10T06:45:54.296Z,1.83
2019-02-10T06:48:34.754Z,1.60
2019-02-10T06:51:15.458Z,2.30
2019-02-10T06:53:56.820Z,1.77
2019-02-10T06:56:37.790Z,1.70
2019-02-10T07:02:39.986Z,1.70
2019-02-10T07:05:20.342Z,0.90
2019-02-10T07:08:01.674Z,1.03
2019-02-10T07:10:42.312Z,0.80
2019-02-10T07:13:23.196Z,0.90
2019-02-10T07:16:04.400Z,0.83
2019-02-10T07:18:45.054Z,0.80
2019-02-10T07:21:26.040Z,1.00
2019-02-10T07:24:06.488Z,0.87
2019-02-10T07:26:47.510Z,1.30
2019-02-10T07:29:28.473Z,0.73
2019-02-10T07:32:09.058Z,0.70
2019-02-10T07:34:50.128Z,0.97
2019-02-10T07:37:31.088Z,0.80
2019-02-10T07:42:54.523Z,0.70
2019-02-10T07:45:35.042Z,0.90
2019-02-10T07:48:15.720Z,0.80
2019-02-10T07:50:56.340Z,0.90
2019-02-10T07:53:37.108Z,0.70
2019-02-10T07:56:17.516Z,0.90
2019-02-10T07:58:58.344Z,1.00
2019-02-10T08:01:38.894Z,0.70
2019-02-10T08:04:19.559Z,0.80
2019-02-10T08:07:00.289Z,0.80
2019-02-10T08:09:40.996Z,1.00
2019-02-10T08:12:21.434Z,1.20
2019-02-10T08:15:03.070Z,1.00
2019-02-10T08:17:43.806Z,0.87
2019-02-10T08:20:24.696Z,0.80
2019-02-10T08:23:05.164Z,0.80
2019-02-10T08:25:45.521Z,1.10
2019-02-10T08:28:26.558Z,0.93
2019-02-10T08:31:07.674Z,0.80
2019-02-10T08:33:48.685Z,1.00
2019-02-10T08:36:29.894Z,0.80
2019-02-10T08:39:10.352Z,0.90
2019-02-10T08:44:34.127Z,1.00
2019-02-10T08:47:14.787Z,1.03
2019-02-10T08:52:38.411Z,0.73
2019-02-10T08:55:19.341Z,0.80
2019-02-10T08:58:00.322Z,0.90
2019-02-10T09:03:24.172Z,0.90
2019-02-10T09:08:48.306Z,0.80
2019-02-10T09:11:28.874Z,0.80
2019-02-10T09:14:09.283Z,0.80
2019-02-10T09:16:50.291Z,0.90
2019-02-10T09:19:30.735Z,0.60
2019-02-10T09:22:11.612Z,1.00
2019-02-10T09:24:52.331Z,0.90
2019-02-10T09:27:33.622Z,1.00
2019-02-10T09:30:14.683Z,0.90
2019-02-10T09:32:55.926Z,0.97
2019-02-10T09:35:36.508Z,1.30
2019-02-10T09:38:17.621Z,1.30
2019-02-10T09:40:58.318Z,2.27
2019-02-10T09:43:38.918Z,1.37
2019-02-10T09:46:19.462Z,1.30
2019-02-10T09:49:00.215Z,1.00
2019-02-10T09:51:40.837Z,1.10
2019-02-10T09:54:21.621Z,0.90
2019-02-10T09:57:02.251Z,1.10
2019-02-10T09:59:42.958Z,1.30
2019-02-10T10:02:23.939Z,0.70
2019-02-10T10:05:05.070Z,1.60
2019-02-10T10:07:45.964Z,1.10
2019-02-10T10:10:26.892Z,1.20
2019-02-10T10:13:07.845Z,0.90
2019-02-10T10:15:48.834Z,0.80
2019-02-10T10:18:30.433Z,1.10
2019-02-10T10:21:11.558Z,0.70
2019-02-10T10:23:52.074Z,0.90
2019-02-10T10:26:32.801Z,0.87
2019-02-10T10:29:14.871Z,0.87
2019-02-10T10:31:56.370Z,1.50
2019-02-10T10:34:37.752Z,1.20
2019-02-10T10:37:18.334Z,1.30
2019-02-10T10:39:59.410Z,1.23
2019-02-10T10:42:40.921Z,1.40
2019-02-10T10:45:22.942Z,1.10
2019-02-10T10:48:04.014Z,1.20
2019-02-10T10:50:45.150Z,1.20
2019-02-10T10:53:26.526Z,1.07
2019-02-10T10:56:08.286Z,1.20
2019-02-10T10:58:49.429Z,1.20
2019-02-10T11:01:30.335Z,1.30
2019-02-10T11:04:11.071Z,1.53
2019-02-10T11:06:51.866Z,1.20
2019-02-10T11:09:35.674Z,1.57
2019-02-10T11:12:15.369Z,1.63
2019-02-10T11:14:56.433Z,1.30
2019-02-10T11:17:37.397Z,1.40
2019-02-10T11:20:18.885Z,1.10
2019-02-10T11:22:59.785Z,1.80
2019-02-10T11:25:40.346Z,1.70
2019-02-10T11:28:21.517Z,1.57
2019-02-10T11:31:02.016Z,1.30
2019-02-10T11:33:42.761Z,1.40
2019-02-10T11:36:23.791Z,1.20
2019-02-10T11:39:05.336Z,1.00
2019-02-10T11:41:46.379Z,0.90
2019-02-10T11:44:27.635Z,1.00
2019-02-10T11:47:08.913Z,0.67
2019-02-10T11:49:50.443Z,0.90
2019-02-10T11:52:30.981Z,0.67
2019-02-10T11:55:12.364Z,0.90
2019-02-10T11:57:53.831Z,1.40
2019-02-10T12:00:35.005Z,1.00
2019-02-10T12:03:15.629Z,0.67
2019-02-10T12:05:57.127Z,1.00
2019-02-10T12:11:20.833Z,0.67
2019-02-10T12:16:46.088Z,0.87
2019-02-10T12:19:26.711Z,0.70
2019-02-10T12:22:07.286Z,0.77
2019-02-10T12:27:32.902Z,0.90
2019-02-10T12:30:14.024Z,1.10
2019-02-10T12:32:55.709Z,0.53
2019-02-10T12:35:36.747Z,0.80
2019-02-10T12:38:17.635Z,0.70
2019-02-10T12:40:59.161Z,0.70
2019-02-10T12:43:40.032Z,1.00
2019-02-10T12:46:21.303Z,0.90
2019-02-10T12:49:01.622Z,0.67
2019-02-10T12:51:42.979Z,0.60
2019-02-10T12:54:23.542Z,0.80
2019-02-10T12:57:03.890Z,1.17
2019-02-10T12:59:44.464Z,0.77
2019-02-10T13:02:24.872Z,0.77
2019-02-10T13:05:05.886Z,0.60
2019-02-10T13:07:46.783Z,0.77
2019-02-10T13:10:28.033Z,0.83
2019-02-10T13:13:09.039Z,0.80
2019-02-10T13:15:49.608Z,0.90
2019-02-10T13:18:30.954Z,0.97
2019-02-10T13:21:12.163Z,0.87
2019-02-10T13:23:52.946Z,0.73
2019-02-10T13:26:33.713Z,1.33
2019-02-10T13:29:14.410Z,0.80
2019-02-10T13:31:55.108Z,1.30
2019-02-10T13:34:36.045Z,1.63
2019-02-10T13:37:16.618Z,0.80
2019-02-10T13:39:57.839Z,1.00
2019-02-10T13:42:38.583Z,0.90
2019-02-10T13:45:19.277Z,1.00
2019-02-10T13:48:00.212Z,0.80
2019-02-10T13:50:40.993Z,0.80
2019-02-10T13:53:22.010Z,1.33
2019-02-10T13:56:03.321Z,0.80
2019-02-10T13:58:44.538Z,0.70
2019-02-10T14:01:25.347Z,0.70
2019-02-10T14:04:06.005Z,0.77
2019-02-10T14:06:47.090Z,1.10
2019-02-10T14:09:31.167Z,1.00
2019-02-10T14:12:13.155Z,0.97
2019-02-10T14:14:54.092Z,0.97
2019-02-10T14:17:35.311Z,0.90
2019-02-10T14:20:16.596Z,1.20
2019-02-10T14:22:57.752Z,0.80
2019-02-10T14:25:38.518Z,0.80
2019-02-10T14:28:19.374Z,0.70
2019-02-10T14:31:00.360Z,0.83
2019-02-10T14:33:41.051Z,0.73
2019-02-10T14:36:21.763Z,0.90
2019-02-10T14:39:02.849Z,0.97
2019-02-10T14:41:43.695Z,1.00
2019-02-10T14:44:24.383Z,0.70
2019-02-10T14:47:05.695Z,0.93
2019-02-10T14:49:46.232Z,0.63
2019-02-10T14:55:16.123Z,1.03
2019-02-10T14:57:57.682Z,1.10
2019-02-10T15:00:38.451Z,0.97
2019-02-10T15:03:19.499Z,0.80
2019-02-10T15:06:00.080Z,0.70
2019-02-10T15:08:40.942Z,0.90
2019-02-10T15:11:22.044Z,1.07
2019-02-10T15:14:03.364Z,0.80
2019-02-10T15:16:44.566Z,1.20
2019-02-10T15:19:25.493Z,1.17
2019-02-10T15:22:06.414Z,1.43
2019-02-10T15:24:47.660Z,1.00
2019-02-10T15:27:28.145Z,1.33
2019-02-10T15:30:08.693Z,1.17
2019-02-10T15:32:49.949Z,1.20
2019-02-10T15:35:31.634Z,1.27
2019-02-10T15:38:12.880Z,1.17
2019-02-10T15:40:54.100Z,1.13
2019-02-10T15:43:35.331Z,1.40
2019-02-10T15:46:15.656Z,1.43
2019-02-10T15:48:56.571Z,0.90
2019-02-10T15:51:37.498Z,1.10
2019-02-10T15:54:17.974Z,1.10
2019-02-10T15:56:58.734Z,1.00
2019-02-10T15:59:39.339Z,0.77
2019-02-10T16:02:19.902Z,0.60
2019-02-10T16:05:00.678Z,0.90
2019-02-10T16:10:30.674Z,0.80
2019-02-10T16:13:11.434Z,0.80
2019-02-10T16:15:51.962Z,0.73
2019-02-10T16:18:33.062Z,1.07
2019-02-10T16:21:13.956Z,0.57
2019-02-10T16:23:54.725Z,0.80
2019-02-10T16:26:24.017Z,0.60
2019-02-10T16:29:12.251Z,0.70
2019-02-10T16:32:00.306Z,0.70
2019-02-10T16:34:48.676Z,0.90
2019-02-10T16:37:37.066Z,1.10
2019-02-10T16:40:25.110Z,0.70
2019-02-10T16:43:13.153Z,0.77
2019-02-10T16:46:01.191Z,0.80
2019-02-10T16:51:56.258Z,0.80
2019-02-10T16:54:44.227Z,0.80
2019-02-10T16:57:32.537Z,0.60
2019-02-10T17:00:21.029Z,0.87
2019-02-10T17:03:09.017Z,0.70
2019-02-10T17:05:57.712Z,0.67
2019-02-10T17:08:45.678Z,0.77
2019-02-10T17:11:26.470Z,0.90
2019-02-10T17:14:07.702Z,0.87
2019-02-10T17:16:48.410Z,0.80
2019-02-10T17:19:28.986Z,0.70
2019-02-10T17:22:09.730Z,0.70
2019-02-10T17:24:50.769Z,0.53
2019-02-10T17:27:32.009Z,0.90
2019-02-10T17:30:12.900Z,0.73
2019-02-10T17:32:53.906Z,0.73
2019-02-10T17:35:35.126Z,0.80
2019-02-10T17:38:16.052Z,1.00
2019-02-10T17:40:56.883Z,1.10
2019-02-10T17:43:37.810Z,1.27
2019-02-10T17:46:18.602Z,0.70
2019-02-10T17:48:59.331Z,0.77
2019-02-10T17:51:40.559Z,0.90
2019-02-10T17:54:21.015Z,0.90
2019-02-10T17:57:01.857Z,0.73
2019-02-10T17:59:42.712Z,0.60
2019-02-10T18:02:23.732Z,0.90
2019-02-10T18:07:47.875Z,0.60
2019-02-10T18:10:28.549Z,0.63
2019-02-10T18:13:11.053Z,0.80
2019-02-10T18:16:11.226Z,0.70
2019-02-10T18:18:52.101Z,0.60
2019-02-10T18:24:21.707Z,0.63
2019-02-10T18:27:16.695Z,0.50
2019-02-10T18:36:17.182Z,0.57
2019-02-10T18:42:12.054Z,0.47
2019-02-10T18:48:26.529Z,0.73
2019-02-10T18:51:29.657Z,0.80
2019-02-10T18:54:31.290Z,0.90
2019-02-10T18:57:31.410Z,0.77
2019-02-10T19:03:07.102Z,0.60
2019-02-10T19:09:03.664Z,0.57
2019-02-10T19:14:58.616Z,0.80
2019-02-10T19:18:05.069Z,0.83
2019-02-10T19:21:04.605Z,0.77
2019-02-10T19:23:45.487Z,0.97
2019-02-10T19:26:46.018Z,0.80
2019-02-10T19:29:41.219Z,1.00
2019-02-10T19:32:34.766Z,1.23
2019-02-10T19:35:18.865Z,1.27
2019-02-10T19:38:06.695Z,0.70
2019-02-10T19:41:02.948Z,0.70
2019-02-10T19:44:10.037Z,1.00
2019-02-10T19:47:17.094Z,0.70
2019-02-10T19:50:24.539Z,0.63
2019-02-10T19:53:31.867Z,0.70
2019-02-10T19:56:38.949Z,0.87
2019-02-10T19:59:46.036Z,0.70
2019-02-10T20:02:53.156Z,1.03
2019-02-10T20:06:00.529Z,1.00
2019-02-10T20:08:55.715Z,0.70
2019-02-10T20:12:03.988Z,0.80
2019-02-10T20:14:42.258Z,0.70
2019-02-10T20:17:39.537Z,0.80
2019-02-10T20:20:45.842Z,0.77
2019-02-10T20:26:35.102Z,1.00
2019-02-10T20:29:31.353Z,0.83
2019-02-10T20:38:10.165Z,0.67
2019-02-10T20:41:17.217Z,0.60
2019-02-10T20:44:24.277Z,0.70
2019-02-10T20:47:31.404Z,0.70
2019-02-10T20:50:38.718Z,0.93
2019-02-10T20:53:45.839Z,0.70
2019-02-10T20:56:40.218Z,0.97
2019-02-10T20:59:47.590Z,0.80
2019-02-10T21:02:41.605Z,0.70
2019-02-10T21:05:48.925Z,0.70
2019-02-10T21:08:55.982Z,0.90
2019-02-10T21:11:56.134Z,0.80
2019-02-10T21:14:47.433Z,0.60
2019-02-10T21:17:47.390Z,0.60
2019-02-10T21:20:52.890Z,0.77
2019-02-10T21:23:45.117Z,0.60
2019-02-10T21:26:51.269Z,0.70
2019-02-10T21:29:51.149Z,0.83
2019-02-10T21:32:57.166Z,0.70
2019-02-10T21:35:49.206Z,0.60
2019-02-10T21:38:49.340Z,0.77
2019-02-10T21:41:49.068Z,0.70
2019-02-10T21:44:35.106Z,0.60
2019-02-10T21:47:27.509Z,0.70
2019-02-10T21:50:08.301Z,0.60
2019-02-10T21:52:49.321Z,0.50
2019-02-10T21:55:29.781Z,0.70
2019-02-10T21:58:10.698Z,0.50
2019-02-10T22:00:51.885Z,0.60
2019-02-10T22:03:32.682Z,0.50
2019-02-10T22:06:13.565Z,0.40
2019-02-10T22:08:55.078Z,0.40
2019-02-10T22:11:36.329Z,0.60
2019-02-10T22:14:17.039Z,0.50
2019-02-10T22:16:57.694Z,0.70
2019-02-10T22:19:38.299Z,0.50
2019-02-10T22:22:18.957Z,0.50
2019-02-10T22:24:59.849Z,0.50
2019-02-10T22:27:41.097Z,0.50
2019-02-10T22:30:21.432Z,0.60
2019-02-10T22:33:02.574Z,0.50
2019-02-10T22:35:43.746Z,0.60
2019-02-10T22:38:24.824Z,0.47
2019-02-10T22:41:05.110Z,0.57
2019-02-10T22:43:45.910Z,0.50
2019-02-10T22:46:26.484Z,0.70
2019-02-10T22:49:07.283Z,0.53
2019-02-10T22:51:47.776Z,0.47
2019-02-10T22:54:28.642Z,0.57
2019-02-10T22:57:09.018Z,0.87
2019-02-10T22:59:49.652Z,0.70
2019-02-10T23:02:30.618Z,1.03
2019-02-10T23:05:11.719Z,0.40
2019-02-10T23:07:52.074Z,0.50
2019-02-10T23:10:32.850Z,0.50
2019-02-10T23:13:13.810Z,0.57
2019-02-10T23:15:54.393Z,0.40
2019-02-10T23:18:35.131Z,0.50
2019-02-10T23:21:15.567Z,0.50
2019-02-10T23:23:55.980Z,0.50
2019-02-10T23:26:36.854Z,0.50
2019-02-10T23:29:17.536Z,0.57
2019-02-10T23:31:57.861Z,0.50
2019-02-10T23:34:38.749Z,0.50
2019-02-10T23:37:19.224Z,0.50
2019-02-10T23:40:00.373Z,0.53
2019-02-10T23:42:40.997Z,0.70
2019-02-10T23:45:21.577Z,0.50
2019-02-10T23:48:02.283Z,0.40
2019-02-10T23:50:42.910Z,0.57
2019-02-10T23:53:23.522Z,0.50
2019-02-10T23:56:04.094Z,0.60
2019-02-10T23:58:45.384Z,0.70
